Terminal Aerodrome Forecast
Issued by NWS Omaha/Valley, NE

Home | Current Version | Previous Version | Text Only | Print | Product List | Glossary Off
Versions: 1 2 3 4 5 6 7 8 9 10 11 12 13 14 15 16 17 18 19

000
FTUS43 KOAX 141735
TAFOFK
TAF
KOFK 141735Z 1418/1518 18006KT 4SM BR OVC004
      TEMPO 1418/1420 3/4SM -DZ BR OVC002
     FM142100 31010KT P6SM OVC003
     FM142230 30021G28KT P6SM VCSH BKN008
     FM150100 32023G30KT P6SM BKN015
     FM150700 32016G24KT P6SM FEW100
     FM151100 31009KT P6SM SKC=

USA.gov is the U.S. government's official web portal to all federal, state and local government web resources and services.